Time;durP1;ratioP1;P1;durP2;ratioP2;P2;SDS_P1;SDS_P2;PMS_P1;PMS_P2;Temp;Humidity;BMP_temperature;BMP_pressure;BME280_temperature;BME280_humidity;BME280_pressure;Samples;Min_cycle;Max_cycle;Signal;HPM_P1;HPM_P2
2022/09/06 00:00:39;;;;;;;3.70;3.40;;;;;;;20.63;66.73;101434.03;6208709;23;20075;-92
2022/09/06 00:03:05;;;;;;;5.28;3.22;;;;;;;20.50;68.58;101460.91;6207619;23;20059;-94
2022/09/06 00:05:31;;;;;;;5.93;3.80;;;;;;;20.53;68.46;101467.91;6182113;23;20004;-93
2022/09/06 00:07:58;;;;;;;5.18;4.18;;;;;;;20.45;68.91;101478.28;6183216;23;20340;-93
2022/09/06 00:10:24;;;;;;;3.80;3.42;;;;;;;20.54;68.81;101489.28;6158461;23;20443;-93
2022/09/06 00:12:49;;;;;;;4.28;3.65;;;;;;;20.48;68.83;101494.25;6182995;23;20008;-93
2022/09/06 00:15:15;;;;;;;4.55;4.10;;;;;;;20.25;68.80;101515.50;6157897;23;20022;-93
2022/09/06 00:17:40;;;;;;;5.80;4.10;;;;;;;20.29;69.73;101570.69;6182340;23;20314;-93
2022/09/06 00:20:08;;;;;;;3.97;3.60;;;;;;;20.19;69.36;101593.78;6209347;23;20417;-93
2022/09/06 00:22:35;;;;;;;7.07;3.83;;;;;;;20.07;70.46;101584.75;6184614;23;20091;-93
2022/09/06 00:25:00;;;;;;;7.13;4.40;;;;;;;19.94;70.71;101605.31;6181240;23;20015;-94
2022/09/06 00:27:27;;;;;;;8.43;4.32;;;;;;;19.81;71.44;101613.31;6208179;23;20340;-93
2022/09/06 00:29:52;;;;;;;5.82;4.20;;;;;;;19.78;71.37;101605.50;6182935;23;20086;-93
2022/09/06 00:32:18;;;;;;;6.00;4.35;;;;;;;19.92;70.33;101591.16;6183881;23;20091;-93
2022/09/06 00:34:43;;;;;;;6.78;4.70;;;;;;;19.95;70.44;101596.28;6209911;23;20008;-94
2022/09/06 00:37:08;;;;;;;7.53;4.68;;;;;;;19.90;70.64;101601.13;6182763;23;20059;-93
2022/09/06 00:39:34;;;;;;;5.25;4.55;;;;;;;20.08;69.96;101599.00;6182562;23;20439;-92
2022/09/06 00:41:59;;;;;;;5.18;4.10;;;;;;;20.13;69.19;101578.09;6183371;23;20055;-93
2022/09/06 00:44:24;;;;;;;5.03;4.50;;;;;;;20.27;68.81;101594.09;6183928;23;20008;-94
2022/09/06 00:46:53;;;;;;;5.47;4.60;;;;;;;20.36;69.34;101598.84;6182019;23;20009;-94
2022/09/06 00:49:23;;;;;;;7.47;4.93;;;;;;;20.26;70.33;101581.66;6183209;23;20001;-93
2022/09/06 00:51:55;;;;;;;5.68;4.65;;;;;;;20.26;69.65;101581.66;6182321;23;20012;-93
2022/09/06 00:54:20;;;;;;;5.45;4.50;;;;;;;20.24;68.87;101566.63;6183369;23;20070;-94
2022/09/06 00:56:46;;;;;;;5.13;4.63;;;;;;;20.24;70.07;101575.53;6181165;23;20441;-94
2022/09/06 00:59:12;;;;;;;4.90;4.32;;;;;;;20.25;69.44;101558.44;6209374;23;20000;-94
2022/09/06 01:01:38;;;;;;;5.15;4.53;;;;;;;20.33;70.62;101550.72;6183053;23;20008;-93
2022/09/06 01:04:03;;;;;;;5.53;4.72;;;;;;;20.53;69.29;101554.72;6181642;23;20004;-94
2022/09/06 01:06:55;;;;;;;5.03;4.63;;;;;;;20.63;67.74;101544.19;6180964;23;20008;-94
2022/09/06 01:09:49;;;;;;;5.82;4.85;;;;;;;20.77;67.66;101546.75;6185629;23;20084;-94
2022/09/06 01:12:35;;;;;;;4.95;4.05;;;;;;;20.77;66.16;101541.38;6183536;23;20012;-95
2022/09/06 01:15:33;;;;;;;5.65;5.10;;;;;;;20.50;68.71;101546.00;6181894;23;20086;-94
2022/09/06 01:18:05;;;;;;;6.55;5.30;;;;;;;20.19;70.94;101534.72;6208771;23;20027;-93
2022/09/06 01:20:40;;;;;;;5.57;5.07;;;;;;;20.15;71.00;101530.53;6180599;23;20019;-94
2022/09/06 01:23:05;;;;;;;5.55;5.13;;;;;;;19.94;72.38;101522.13;6182958;23;20343;-94
2022/09/06 01:26:02;;;;;;;6.33;4.93;;;;;;;19.89;71.41;101521.56;6182240;23;20008;-94
2022/09/06 01:28:36;;;;;;;6.90;4.45;;;;;;;20.00;71.23;101512.78;6180836;23;20251;-93
2022/09/06 01:31:07;;;;;;;7.05;4.72;;;;;;;20.24;70.50;101492.28;6182646;23;20031;-93
2022/09/06 01:34:06;;;;;;;6.68;5.03;;;;;;;20.35;69.76;101483.47;6182342;23;20445;-93
2022/09/06 01:36:53;;;;;;;5.90;4.75;;;;;;;20.36;69.19;101459.19;6181848;23;20008;-93
2022/09/06 01:39:26;;;;;;;5.38;4.82;;;;;;;20.36;69.16;101440.38;6182687;23;20034;-92
2022/09/06 01:41:53;;;;;;;8.98;5.53;;;;;;;20.24;69.83;101416.25;6182686;23;20016;-92
2022/09/06 01:44:21;;;;;;;7.90;6.10;;;;;;;20.15;70.11;101407.03;6182921;23;20008;-92
2022/09/06 01:47:28;;;;;;;9.57;5.82;;;;;;;20.11;69.60;101409.06;6208846;23;20008;-93
2022/09/06 01:50:15;;;;;;;7.65;5.63;;;;;;;19.86;70.02;101384.91;6180106;23;20008;-93
2022/09/06 01:52:58;;;;;;;6.32;5.00;;;;;;;19.73;71.29;101384.94;6182959;23;20016;-93
2022/09/06 01:55:53;;;;;;;6.15;5.32;;;;;;;19.83;70.05;101372.59;6182801;23;20391;-93
2022/09/06 01:58:46;;;;;;;7.57;5.50;;;;;;;19.90;70.59;101366.78;6182309;23;20390;-94
2022/09/06 02:01:21;;;;;;;6.63;5.65;;;;;;;19.74;71.05;101354.44;6180809;23;20413;-93
2022/09/06 02:04:06;;;;;;;7.63;5.70;;;;;;;19.71;71.17;101343.94;6181092;23;20012;-93
2022/09/06 02:06:38;;;;;;;5.88;5.38;;;;;;;19.58;73.10;101345.72;6181606;23;20100;-92
2022/09/06 02:09:25;;;;;;;8.38;5.63;;;;;;;19.56;71.47;101343.16;6157004;23;20015;-93
2022/09/06 02:11:56;;;;;;;7.20;6.05;;;;;;;19.40;73.90;101325.53;6181653;23;20333;-93
2022/09/06 02:14:32;;;;;;;7.30;5.53;;;;;;;19.37;73.49;101315.91;6183919;23;20001;-93
2022/09/06 02:16:59;;;;;;;7.40;5.78;;;;;;;19.28;73.83;101335.31;6181578;23;20004;-93
2022/09/06 02:19:34;;;;;;;7.85;5.68;;;;;;;19.25;73.73;101394.47;6181108;23;20005;-93
2022/09/06 02:22:05;;;;;;;7.18;6.32;;;;;;;19.34;74.02;101389.34;6207971;23;20051;-91
2022/09/06 02:24:35;;;;;;;8.10;6.03;;;;;;;19.45;73.22;101356.47;6181851;23;20008;-93
2022/09/06 02:27:01;;;;;;;9.13;6.00;;;;;;;19.48;72.63;101371.47;6182168;23;20012;-94
2022/09/06 02:29:26;;;;;;;8.27;6.60;;;;;;;19.44;74.19;101375.31;6181449;23;20015;-93
2022/09/06 02:32:02;;;;;;;8.48;6.60;;;;;;;19.56;73.09;101390.56;6207290;23;20013;-93
2022/09/06 02:34:28;;;;;;;8.10;6.03;;;;;;;19.63;73.03;101394.56;6181609;23;20015;-93
2022/09/06 02:36:54;;;;;;;6.63;6.03;;;;;;;19.72;71.68;101399.28;6181193;23;20087;-94
2022/09/06 02:39:19;;;;;;;9.40;6.30;;;;;;;19.68;74.00;101379.03;6182097;23;20004;-93
2022/09/06 02:41:46;;;;;;;7.43;5.97;;;;;;;19.74;72.65;101377.75;6182760;23;20080;-93
2022/09/06 02:44:12;;;;;;;6.80;6.00;;;;;;;19.73;72.25;101370.66;6183376;23;20011;-94
2022/09/06 02:46:37;;;;;;;8.45;6.45;;;;;;;19.60;74.22;101366.16;6181466;23;20012;-93
2022/09/06 02:49:02;;;;;;;7.18;6.28;;;;;;;19.66;71.46;101378.25;6181947;23;20051;-94
2022/09/06 02:51:28;;;;;;;6.43;5.80;;;;;;;19.69;72.66;101378.06;6180581;23;20051;-93
2022/09/06 02:53:53;;;;;;;9.15;6.30;;;;;;;19.73;72.38;101382.25;6210818;23;20788;-93
2022/09/06 02:56:19;;;;;;;6.43;5.82;;;;;;;19.69;72.14;101370.00;6184189;23;20008;-94
2022/09/06 02:58:44;;;;;;;6.60;5.90;;;;;;;19.61;71.45;101367.00;6182332;23;20039;-93
2022/09/06 03:01:09;;;;;;;8.60;6.53;;;;;;;19.46;71.95;101370.72;6210015;23;20058;-93
2022/09/06 03:03:35;;;;;;;8.10;6.85;;;;;;;19.14;73.39;101376.47;6183156;23;20340;-94
2022/09/06 03:06:00;;;;;;;6.68;5.97;;;;;;;19.10;73.59;101382.97;6182692;23;20008;-94
2022/09/06 03:08:28;;;;;;;8.20;6.35;;;;;;;19.22;73.37;101390.22;6210207;23;20005;-94
2022/09/06 03:10:55;;;;;;;8.48;7.30;;;;;;;19.05;74.53;101394.00;6183107;23;20055;-95
2022/09/06 03:13:22;;;;;;;9.90;7.00;;;;;;;19.00;73.97;101397.97;6185185;23;20005;-94
2022/09/06 03:15:52;;;;;;;7.63;6.40;;;;;;;19.02;74.04;101386.16;6183645;23;20504;-94
2022/09/06 03:18:18;;;;;;;8.25;6.60;;;;;;;19.13;73.51;101385.47;6183769;23;20248;-95
2022/09/06 03:20:44;;;;;;;7.65;6.95;;;;;;;19.00;74.19;101382.75;6183963;23;20344;-95
2022/09/06 03:23:09;;;;;;;9.20;6.47;;;;;;;19.02;73.81;101372.75;6210783;23;20552;-95
2022/09/06 03:25:35;;;;;;;9.82;7.35;;;;;;;18.90;74.12;101372.75;6184706;23;20008;-95
2022/09/06 03:28:01;;;;;;;7.93;7.18;;;;;;;18.75;75.10;101378.16;6184543;23;20016;-95
2022/09/06 03:30:26;;;;;;;7.35;6.63;;;;;;;18.61;74.58;101368.31;6181147;23;20127;-95
2022/09/06 03:32:52;;;;;;;8.10;7.15;;;;;;;18.40;75.59;101367.03;6181644;23;20403;-95
2022/09/06 03:35:18;;;;;;;7.05;6.30;;;;;;;18.34;75.09;101368.28;6183382;23;20000;-94
2022/09/06 03:37:43;;;;;;;10.73;7.25;;;;;;;18.29;76.27;101369.53;6184138;23;20080;-96
2022/09/06 03:40:09;;;;;;;11.82;7.53;;;;;;;18.29;75.47;101372.22;6209565;23;20009;-94
2022/09/06 03:42:34;;;;;;;7.20;6.60;;;;;;;18.28;75.01;101379.41;6184544;23;20000;-95
2022/09/06 03:45:00;;;;;;;8.52;6.80;;;;;;;18.40;74.72;101372.38;6184343;23;20035;-94
2022/09/06 03:47:25;;;;;;;6.93;6.22;;;;;;;18.45;74.01;101372.09;6181989;23;20237;-93
2022/09/06 03:49:51;;;;;;;7.65;6.32;;;;;;;18.46;73.28;101376.47;6209610;23;20076;-95
2022/09/06 03:52:16;;;;;;;7.63;6.82;;;;;;;18.34;75.22;101375.47;6182799;23;20016;-94
2022/09/06 03:54:42;;;;;;;8.45;6.22;;;;;;;18.43;73.30;101380.22;6183713;23;20019;-95
2022/09/06 03:57:07;;;;;;;7.13;6.40;;;;;;;18.34;74.45;101386.16;6182890;23;20392;-94
2022/09/06 03:59:33;;;;;;;7.53;6.63;;;;;;;18.38;74.70;101392.19;6183800;23;20005;-94
2022/09/06 04:01:58;;;;;;;7.63;5.97;;;;;;;18.47;73.60;101386.25;6210442;23;20061;-94
2022/09/06 04:04:24;;;;;;;9.23;6.53;;;;;;;18.48;76.29;101380.78;6182598;23;20025;-94
2022/09/06 04:06:49;;;;;;;7.05;6.35;;;;;;;18.52;74.35;101387.66;6183041;23;20036;-95
2022/09/06 04:09:14;;;;;;;6.93;6.22;;;;;;;18.49;73.20;101389.66;6184249;23;20020;-95
2022/09/06 04:11:40;;;;;;;8.90;7.00;;;;;;;18.31;74.72;101381.84;6183324;23;20008;-95
2022/09/06 04:14:05;;;;;;;7.32;6.45;;;;;;;18.33;74.86;101377.28;6183770;23;20008;-95
2022/09/06 04:16:30;;;;;;;7.97;6.90;;;;;;;18.33;74.10;101384.47;6181238;23;20004;-95
2022/09/06 04:18:58;;;;;;;9.15;7.20;;;;;;;18.23;74.14;101381.50;6183456;23;20019;-94
2022/09/06 04:21:24;;;;;;;8.07;6.75;;;;;;;18.28;73.90;101405.31;6182689;23;20035;-95
2022/09/06 04:23:49;;;;;;;8.35;5.93;;;;;;;18.26;73.02;101399.19;6209817;23;20420;-94
2022/09/06 04:26:14;;;;;;;8.35;6.88;;;;;;;18.09;73.69;101405.56;6182269;23;20015;-94
2022/09/06 04:28:39;;;;;;;7.57;6.80;;;;;;;17.86;74.68;101396.34;6182919;23;20012;-95
2022/09/06 04:31:05;;;;;;;7.15;6.35;;;;;;;17.86;74.46;101401.69;6183179;23;20000;-95
2022/09/06 04:33:32;;;;;;;8.60;7.43;;;;;;;17.70;74.81;101393.69;6183778;23;20011;-95
2022/09/06 04:36:00;;;;;;;8.52;7.10;;;;;;;17.71;75.37;101407.91;6181064;23;20015;-95
2022/09/06 04:38:28;;;;;;;10.05;7.57;;;;;;;17.64;75.07;101388.72;6182942;23;20143;-94
2022/09/06 04:40:54;;;;;;;7.50;6.80;;;;;;;17.74;73.54;101387.25;6183142;23;20005;-95
2022/09/06 04:43:20;;;;;;;7.85;7.07;;;;;;;17.68;74.63;101382.25;6183526;23;20400;-94
2022/09/06 04:45:45;;;;;;;8.70;7.90;;;;;;;17.64;74.66;101386.06;6184056;23;20006;-95
2022/09/06 04:48:10;;;;;;;8.10;7.30;;;;;;;17.65;74.23;101397.59;6183607;23;20008;-95
2022/09/06 04:50:36;;;;;;;8.98;7.78;;;;;;;17.60;75.50;101411.25;6182161;23;20428;-95
2022/09/06 04:53:02;;;;;;;8.82;7.88;;;;;;;17.57;75.32;101414.09;6183115;23;20027;-95
2022/09/06 04:55:30;;;;;;;9.73;8.45;;;;;;;17.50;75.60;101410.09;6182619;23;20083;-94
2022/09/06 04:57:57;;;;;;;8.77;7.88;;;;;;;17.44;76.05;101410.44;6182472;23;20058;-94
2022/09/06 05:00:22;;;;;;;9.75;7.93;;;;;;;17.33;75.64;101411.09;6180755;23;20103;-94
2022/09/06 05:02:48;;;;;;;10.07;8.48;;;;;;;17.23;76.39;101401.91;6209364;23;20455;-95
2022/09/06 05:05:13;;;;;;;9.40;7.13;;;;;;;17.27;75.96;101403.44;6182189;23;20333;-95
2022/09/06 05:07:38;;;;;;;10.18;8.50;;;;;;;17.33;75.89;101406.59;6206536;23;20012;-95
2022/09/06 05:10:04;;;;;;;10.13;8.43;;;;;;;17.30;76.06;101406.81;6180647;23;20005;-95
2022/09/06 05:12:30;;;;;;;9.52;7.93;;;;;;;17.32;75.46;101396.00;6187667;23;20401;-96
2022/09/06 05:14:55;;;;;;;9.18;8.27;;;;;;;17.38;76.00;101416.16;6185585;23;20312;-94
2022/09/06 05:17:21;;;;;;;10.10;8.85;;;;;;;17.51;76.46;101403.78;6184421;23;20340;-95
2022/09/06 05:19:47;;;;;;;12.32;8.77;;;;;;;17.63;76.64;101418.25;6182485;23;20455;-95
2022/09/06 05:22:12;;;;;;;10.00;8.18;;;;;;;17.68;76.39;101408.97;6184088;23;20019;-95
2022/09/06 05:24:37;;;;;;;11.00;7.78;;;;;;;17.65;74.16;101392.25;6183807;23;20005;-94
2022/09/06 05:27:04;;;;;;;10.15;8.68;;;;;;;17.81;75.57;101422.47;6183209;23;20065;-95
2022/09/06 05:29:30;;;;;;;8.10;7.30;;;;;;;17.81;74.78;101411.78;6182699;23;20005;-94
2022/09/06 05:31:56;;;;;;;10.65;8.57;;;;;;;17.82;75.30;101409.03;6183649;23;20011;-95
2022/09/06 05:34:21;;;;;;;9.77;8.77;;;;;;;17.87;76.04;101413.25;6182466;23;20729;-95
2022/09/06 05:36:47;;;;;;;11.68;8.77;;;;;;;17.86;76.30;101407.03;6183042;23;20048;-95
2022/09/06 05:39:12;;;;;;;9.85;8.85;;;;;;;17.90;75.49;101427.25;6184210;23;20008;-94
2022/09/06 05:41:37;;;;;;;10.25;9.23;;;;;;;17.75;75.62;101415.69;6182641;23;20432;-94
2022/09/06 05:44:03;;;;;;;11.25;10.05;;;;;;;17.82;77.41;101419.72;6184923;23;20013;-95
2022/09/06 05:46:28;;;;;;;12.35;10.40;;;;;;;17.80;76.47;101418.94;6181581;23;20016;-95
2022/09/06 05:48:56;;;;;;;10.88;9.15;;;;;;;17.85;76.35;101424.88;6183983;23;20023;-95
2022/09/06 05:51:23;;;;;;;10.73;9.63;;;;;;;17.82;76.10;101406.34;6183735;23;20008;-94
2022/09/06 05:53:48;;;;;;;11.95;9.63;;;;;;;17.94;75.98;101427.94;6181559;23;20436;-95
2022/09/06 05:56:15;;;;;;;11.98;9.63;;;;;;;18.07;77.10;101424.41;6182145;23;20063;-95
2022/09/06 05:58:40;;;;;;;11.55;9.40;;;;;;;18.13;76.92;101420.50;6182382;23;20366;-95
2022/09/06 06:01:25;;;;;;;14.23;10.15;;;;;;;18.22;75.97;101427.09;6208703;23;20007;-94
2022/09/06 06:04:01;;;;;;;16.13;10.05;;;;;;;18.24;75.56;101422.50;6184341;23;20051;-95
2022/09/06 06:06:29;;;;;;;12.45;9.90;;;;;;;18.28;76.05;101424.91;6182474;23;20023;-96
2022/09/06 06:08:55;;;;;;;10.60;9.50;;;;;;;18.27;76.57;101412.44;6185391;23;20036;-95
2022/09/06 06:11:21;;;;;;;11.00;9.80;;;;;;;18.34;75.95;101424.50;6184649;23;20364;-95
2022/09/06 06:13:46;;;;;;;12.02;10.45;;;;;;;18.28;76.36;101435.59;6185909;23;20000;-95
2022/09/06 06:16:13;;;;;;;14.15;9.45;;;;;;;18.24;76.08;101420.69;6183472;23;20005;-95
2022/09/06 06:18:39;;;;;;;10.25;9.30;;;;;;;18.28;76.90;101419.56;6184101;23;20016;-95
2022/09/06 06:21:08;;;;;;;13.32;10.98;;;;;;;18.29;76.66;101431.13;6186844;23;20000;-96
2022/09/06 06:23:33;;;;;;;14.48;9.95;;;;;;;18.31;76.91;101421.16;6183270;23;20385;-94
2022/09/06 06:25:58;;;;;;;12.95;10.23;;;;;;;18.38;76.97;101413.59;6209944;23;20039;-94
2022/09/06 06:28:24;;;;;;;11.57;10.38;;;;;;;18.42;76.76;101407.06;6188200;23;20009;-96
2022/09/06 06:30:49;;;;;;;12.15;10.90;;;;;;;18.45;75.88;101410.41;6187184;23;20024;-94
2022/09/06 06:33:15;;;;;;;12.15;10.90;;;;;;;18.62;75.75;101420.06;6184065;23;20063;-94
2022/09/06 06:35:40;;;;;;;12.20;10.55;;;;;;;18.64;75.94;101410.09;6182070;23;20119;-93
2022/09/06 06:38:05;;;;;;;14.15;10.98;;;;;;;18.65;76.40;101405.59;6183164;23;20008;-94
2022/09/06 06:40:30;;;;;;;11.55;10.23;;;;;;;18.75;76.45;101398.75;6182909;23;20127;-93
2022/09/06 06:42:56;;;;;;;14.68;10.20;;;;;;;18.89;75.27;101409.41;6184929;23;20059;-94
2022/09/06 06:45:21;;;;;;;12.55;10.55;;;;;;;18.86;75.28;101405.09;6182936;23;20059;-93
2022/09/06 06:47:49;;;;;;;12.50;9.43;;;;;;;18.92;75.65;101411.84;6182917;23;20230;-93
2022/09/06 06:50:15;;;;;;;13.55;10.02;;;;;;;18.89;75.10;101396.00;6182737;23;20512;-94
2022/09/06 06:52:40;;;;;;;10.52;9.02;;;;;;;19.05;75.26;101414.59;6188804;23;20046;-95
2022/09/06 06:55:06;;;;;;;10.52;8.95;;;;;;;19.08;75.01;101415.25;6186622;23;20015;-94
2022/09/06 06:57:31;;;;;;;12.63;9.15;;;;;;;19.23;73.47;101418.72;6184426;23;20039;-95
2022/09/06 06:59:57;;;;;;;8.90;7.90;;;;;;;19.24;73.61;101409.72;6186189;23;20037;-96
2022/09/06 07:02:22;;;;;;;10.15;8.40;;;;;;;19.33;72.95;101427.88;6185757;23;20314;-96
2022/09/06 07:04:47;;;;;;;10.90;8.93;;;;;;;19.42;73.15;101422.84;6187776;23;20484;-95
2022/09/06 07:07:15;;;;;;;10.98;8.63;;;;;;;19.53;72.93;101431.00;6192350;23;20455;-95
2022/09/06 07:09:40;;;;;;;9.13;8.18;;;;;;;19.57;72.05;101409.22;6194266;23;20076;-95
2022/09/06 07:12:06;;;;;;;10.73;9.68;;;;;;;19.68;72.76;101408.53;6161276;23;20402;-95
2022/09/06 07:14:31;;;;;;;14.55;9.60;;;;;;;19.78;72.76;101414.97;6183491;23;20639;-94
2022/09/06 07:16:58;;;;;;;10.38;8.82;;;;;;;19.82;71.36;101405.75;6183850;23;20291;-93
2022/09/06 07:19:23;;;;;;;13.82;9.07;;;;;;;19.91;71.55;101406.06;6183044;23;20004;-93
2022/09/06 07:21:49;;;;;;;12.07;9.25;;;;;;;19.95;70.56;101394.16;6211107;23;20011;-93
2022/09/06 07:24:14;;;;;;;13.35;7.97;;;;;;;20.00;69.66;101387.47;6210363;23;20282;-93
2022/09/06 07:26:40;;;;;;;10.15;8.40;;;;;;;20.20;70.44;101412.91;6184289;23;20043;-91
2022/09/06 07:29:06;;;;;;;9.77;7.35;;;;;;;20.29;69.16;101416.78;6184426;23;20015;-92
2022/09/06 07:31:32;;;;;;;13.60;8.48;;;;;;;20.27;69.02;101403.44;6214017;23;20079;-92
2022/09/06 07:33:58;;;;;;;10.32;7.63;;;;;;;20.38;68.88;101403.53;6214493;23;20123;-92
2022/09/06 07:36:23;;;;;;;8.55;7.70;;;;;;;20.59;67.14;101411.03;6186331;23;20441;-91
2022/09/06 07:38:50;;;;;;;9.77;7.97;;;;;;;20.58;67.08;101403.94;6183893;23;20428;-91
2022/09/06 07:41:16;;;;;;;9.88;7.32;;;;;;;20.80;66.83;101412.16;6210837;23;20036;-91
2022/09/06 07:43:42;;;;;;;9.75;6.72;;;;;;;21.00;66.90;101410.66;6184313;23;20095;-91
2022/09/06 07:46:16;;;;;;;10.02;7.50;;;;;;;21.33;65.43;101411.81;6210436;23;20040;-92
2022/09/06 07:48:43;;;;;;;12.25;6.85;;;;;;;21.76;63.96;101419.25;6183409;23;20039;-91
2022/09/06 07:51:12;;;;;;;7.55;6.80;;;;;;;21.98;62.87;101391.50;6183532;23;20054;-90
2022/09/06 07:53:39;;;;;;;7.65;6.55;;;;;;;22.33;62.05;101410.25;6184312;23;20019;-90
2022/09/06 07:56:07;;;;;;;9.68;6.93;;;;;;;22.58;60.56;101420.75;6209656;23;20338;-90
2022/09/06 07:58:33;;;;;;;9.10;6.55;;;;;;;22.81;60.66;101400.00;6183224;23;20008;-91
2022/09/06 08:01:15;;;;;;;7.38;6.20;;;;;;;23.15;60.38;101416.94;6184099;23;20397;-90
2022/09/06 08:03:40;;;;;;;9.02;6.30;;;;;;;23.58;59.11;101409.72;6183855;23;20452;-90
2022/09/06 08:06:06;;;;;;;7.03;5.82;;;;;;;23.72;59.11;101390.53;6209724;23;20011;-89
2022/09/06 08:08:31;;;;;;;9.07;6.00;;;;;;;24.05;56.98;101400.22;6183385;23;20013;-89
2022/09/06 08:10:56;;;;;;;8.60;6.00;;;;;;;24.42;54.94;101383.47;6181792;23;20019;-89
2022/09/06 08:13:22;;;;;;;9.60;5.95;;;;;;;24.43;54.59;101383.34;6183185;23;20000;-89
2022/09/06 08:15:47;;;;;;;11.32;5.78;;;;;;;24.70;53.92;101398.03;6209835;23;20040;-89
2022/09/06 08:18:12;;;;;;;7.30;4.28;;;;;;;25.17;52.80;101390.97;6209278;23;20102;-88
2022/09/06 08:20:37;;;;;;;5.90;4.72;;;;;;;25.36;51.38;101381.13;6209997;23;20031;-89
2022/09/06 08:23:09;;;;;;;6.30;5.20;;;;;;;25.35;51.57;101393.81;6211883;23;20004;-88
2022/09/06 08:25:34;;;;;;;6.53;4.77;;;;;;;25.73;51.59;101393.88;6184651;23;20000;-89
2022/09/06 08:27:59;;;;;;;6.43;4.90;;;;;;;26.20;49.95;101398.31;6182380;23;20395;-89
2022/09/06 08:30:26;;;;;;;6.30;4.55;;;;;;;26.62;49.01;101394.25;6210036;23;20039;-89
2022/09/06 08:32:51;;;;;;;4.82;3.67;;;;;;;26.53;46.95;101395.16;6210534;23;20004;-89
2022/09/06 08:35:17;;;;;;;7.20;3.72;;;;;;;26.32;48.34;101388.13;6209016;23;20029;-90
2022/09/06 08:37:42;;;;;;;7.47;3.83;;;;;;;26.29;48.78;101385.72;6209230;23;20008;-90
2022/09/06 08:40:08;;;;;;;3.90;3.55;;;;;;;26.55;47.92;101396.75;6209872;23;20004;-90
2022/09/06 08:42:38;;;;;;;6.25;3.92;;;;;;;26.50;47.78;101400.91;6183347;23;20011;-89
2022/09/06 08:45:08;;;;;;;5.13;3.38;;;;;;;26.41;47.35;101411.63;6208886;23;20019;-90
2022/09/06 08:47:34;;;;;;;3.78;2.58;;;;;;;26.17;47.75;101387.78;6182300;23;20047;-91
2022/09/06 08:50:05;;;;;;;5.05;2.90;;;;;;;26.05;49.11;101383.53;6181507;23;20087;-91
2022/09/06 08:52:35;;;;;;;3.42;2.47;;;;;;;26.29;47.42;101385.72;6209326;23;20021;-90
2022/09/06 08:55:25;;;;;;;4.95;2.67;;;;;;;27.08;47.21;101379.66;6182928;23;20009;-89
2022/09/06 08:58:26;;;;;;;2.70;1.80;;;;;;;27.57;46.01;101395.50;6208759;23;20001;-89
2022/09/06 09:01:22;;;;;;;2.83;2.00;;;;;;;27.88;44.48;101387.75;6208008;23;20036;-89
2022/09/06 09:03:47;;;;;;;4.30;2.20;;;;;;;28.41;41.69;101390.25;6132921;23;20043;-89
2022/09/06 09:06:13;;;;;;;2.95;2.03;;;;;;;28.77;41.60;101391.84;6208949;23;20008;-89
2022/09/06 09:08:46;;;;;;;2.95;2.10;;;;;;;29.30;40.85;101387.88;6209794;23;20333;-90
2022/09/06 09:11:21;;;;;;;3.42;1.98;;;;;;;29.38;40.89;101394.16;6185103;23;20109;-90
2022/09/06 09:13:52;;;;;;;2.35;1.92;;;;;;;29.28;39.36;101390.75;6208020;23;20491;-90
2022/09/06 09:16:18;;;;;;;6.22;2.00;;;;;;;29.39;40.30;101378.69;6181545;23;20005;-89
2022/09/06 09:18:50;;;;;;;2.85;1.90;;;;;;;29.33;39.93;101388.38;6182917;23;20004;-90
2022/09/06 09:21:21;;;;;;;4.57;2.58;;;;;;;29.40;39.39;101377.63;6208718;23;20007;-90
2022/09/06 09:23:52;;;;;;;3.85;2.28;;;;;;;29.61;40.26;101367.09;6181424;23;20035;-91
2022/09/06 09:26:18;;;;;;;4.05;2.55;;;;;;;29.73;39.53;101373.88;6182125;23;20008;-90
2022/09/06 09:29:08;;;;;;;5.30;2.40;;;;;;;30.29;39.27;101381.22;6182416;23;20028;-90
2022/09/06 09:31:45;;;;;;;2.42;2.13;;;;;;;29.99;39.11;101370.06;6181695;23;19996;-90
2022/09/06 09:34:13;;;;;;;4.38;2.05;;;;;;;30.14;37.45;101373.78;6207638;23;20186;-90
2022/09/06 09:36:38;;;;;;;5.35;2.20;;;;;;;30.62;37.95;101368.25;6181431;23;20012;-90
2022/09/06 09:39:10;;;;;;;5.85;2.22;;;;;;;31.13;37.01;101376.78;6181521;23;20412;-89
2022/09/06 09:41:39;;;;;;;3.80;2.40;;;;;;;31.60;34.67;101386.63;6208314;23;20321;-89
2022/09/06 09:44:09;;;;;;;5.38;2.42;;;;;;;32.09;35.29;101392.44;6182366;23;20005;-90
2022/09/06 09:46:37;;;;;;;5.43;2.47;;;;;;;32.54;33.51;101386.91;6181932;23;20012;-90
2022/09/06 09:49:11;;;;;;;2.85;2.00;;;;;;;32.80;33.97;101389.97;6209638;23;20038;-89
2022/09/06 09:51:57;;;;;;;3.10;2.35;;;;;;;33.37;33.13;101391.78;6208890;23;20004;-89
2022/09/06 09:54:31;;;;;;;3.22;2.17;;;;;;;34.05;32.63;101383.06;6208789;23;20014;-89
2022/09/06 09:56:57;;;;;;;4.82;2.35;;;;;;;33.64;31.25;101381.06;6182939;23;20028;-89
2022/09/06 09:59:27;;;;;;;3.58;2.00;;;;;;;33.63;31.84;101382.97;6209414;23;20059;-90
2022/09/06 10:01:55;;;;;;;3.45;2.17;;;;;;;34.44;30.85;101379.63;6182164;23;20225;-90
2022/09/06 10:04:51;;;;;;;3.88;2.10;;;;;;;35.33;29.66;101379.41;6182121;23;20339;-89
2022/09/06 10:07:22;;;;;;;2.72;2.10;;;;;;;35.17;31.26;101380.69;6206868;23;20055;-90
2022/09/06 10:09:57;;;;;;;4.22;2.20;;;;;;;35.23;29.08;101363.34;6182126;23;20018;-90
2022/09/06 10:12:30;;;;;;;3.72;2.35;;;;;;;34.94;29.26;101372.81;6181670;23;20092;-89
2022/09/06 10:14:56;;;;;;;4.53;2.17;;;;;;;34.54;29.67;101371.03;6182020;23;20001;-90
2022/09/06 10:17:48;;;;;;;7.70;2.15;;;;;;;34.95;30.58;101388.25;6182049;23;20028;-90
2022/09/06 10:20:13;;;;;;;5.53;2.38;;;;;;;35.05;29.39;101392.50;6208479;23;20401;-90
2022/09/06 10:22:50;;;;;;;4.28;2.50;;;;;;;34.84;30.16;101393.50;6207118;23;20005;-90
2022/09/06 10:25:39;;;;;;;7.40;2.60;;;;;;;34.51;30.63;101388.78;6181245;23;20412;-90
2022/09/06 10:28:04;;;;;;;6.10;2.25;;;;;;;33.10;31.21;101387.13;6181025;23;20028;-90
2022/09/06 10:30:33;;;;;;;7.67;2.30;;;;;;;32.94;32.63;101393.72;6181576;23;20334;-92
2022/09/06 10:33:09;;;;;;;5.35;2.55;;;;;;;32.75;32.79;101389.72;6182659;23;20004;-91
2022/09/06 10:35:38;;;;;;;6.20;2.88;;;;;;;32.67;33.15;101398.88;6181429;23;20214;-91
2022/09/06 10:38:09;;;;;;;4.13;2.63;;;;;;;32.71;33.46;101391.97;6182866;23;20088;-91
2022/09/06 10:40:40;;;;;;;;;;;;;;;33.13;33.19;101386.75;6182820;23;20230;-91
2022/09/06 10:43:12;;;;;;;5.03;2.55;;;;;;;32.98;33.72;101376.72;6183445;23;19904;-90
2022/09/06 10:45:56;;;;;;;4.50;2.95;;;;;;;33.48;33.24;101380.34;6181573;23;20393;-91
2022/09/06 10:48:38;;;;;;;3.25;2.85;;;;;;;33.85;32.17;101385.63;6208023;23;20032;-91
2022/09/06 10:51:31;;;;;;;4.63;2.75;;;;;;;33.93;32.10;101388.22;6181542;23;20496;-91
2022/09/06 10:54:12;;;;;;;5.63;2.90;;;;;;;32.82;33.74;101365.97;6181326;23;20020;-91
2022/09/06 10:56:46;;;;;;;5.20;3.22;;;;;;;33.08;32.98;101367.31;6209295;23;20369;-92
2022/09/06 10:59:16;;;;;;;3.33;3.03;;;;;;;33.05;32.49;101378.66;6182173;23;20000;-93
2022/09/06 11:02:09;;;;;;;4.70;2.72;;;;;;;33.33;33.58;101378.69;6182806;23;20339;-91
2022/09/06 11:04:37;;;;;;;5.72;3.50;;;;;;;32.99;33.13;101350.16;6181433;23;20051;-92
2022/09/06 11:07:22;;;;;;;5.40;3.35;;;;;;;32.70;34.25;101373.00;6208418;23;20017;-91
2022/09/06 11:09:54;;;;;;;4.18;2.90;;;;;;;32.54;33.24;101373.22;6181137;23;20004;-92
2022/09/06 11:12:41;;;;;;;5.25;2.97;;;;;;;32.60;33.55;101376.06;6210029;23;20011;-91
2022/09/06 11:15:11;;;;;;;4.00;3.35;;;;;;;32.86;32.96;101380.97;6184756;23;20004;-92
2022/09/06 11:17:57;;;;;;;5.80;3.80;;;;;;;32.49;33.11;101380.13;6212012;23;20008;-93
2022/09/06 11:20:41;;;;;;;4.95;3.38;;;;;;;33.21;32.71;101397.56;6184430;23;20008;-92
2022/09/06 11:23:24;;;;;;;5.65;3.50;;;;;;;33.16;32.09;101397.31;6211716;23;20000;-92
2022/09/06 11:25:49;;;;;;;5.60;3.05;;;;;;;33.16;32.19;101400.06;6184437;23;20051;-93
2022/09/06 11:28:22;;;;;;;5.87;3.37;;;;;;;33.49;32.10;101408.59;6184144;23;20432;-93
2022/09/06 11:30:52;;;;;;;4.53;3.30;;;;;;;33.42;31.32;101403.00;6185137;23;20008;-93
2022/09/06 11:33:28;;;;;;;5.65;3.95;;;;;;;33.38;31.53;101409.94;6183764;23;20043;-93
2022/09/06 11:36:33;;;;;;;5.95;3.65;;;;;;;33.54;31.96;101417.06;6184281;23;20067;-93